Time;durP1;ratioP1;P1;durP2;ratioP2;P2;SDS_P1;SDS_P2;PMS_P1;PMS_P2;Temp;Humidity;BMP_temperature;BMP_pressure;BME280_temperature;BME280_humidity;BME280_pressure;Samples;Min_cycle;Max_cycle;Signal;HPM_P1;HPM_P2
2021/12/07 00:01:10;;;;;;;17.70;13.48;;;;;;;1.73;68.57;98736.81;5108786;28;20066;-66
2021/12/07 00:03:44;;;;;;;15.45;11.25;;;;;;;1.72;68.64;98726.41;5108473;28;20047;-67
2021/12/07 00:06:17;;;;;;;16.48;12.15;;;;;;;1.69;68.64;98731.72;5108323;28;20044;-66
2021/12/07 00:08:54;;;;;;;15.13;10.52;;;;;;;1.70;68.66;98716.00;5108425;28;20047;-67
2021/12/07 00:11:29;;;;;;;17.60;11.85;;;;;;;1.68;68.18;98724.78;5108354;28;20040;-67
2021/12/07 00:14:11;;;;;;;15.70;11.18;;;;;;;0.87;67.87;98704.38;5108313;28;20204;-67
2021/12/07 00:16:45;;;;;;;16.25;11.70;;;;;;;1.65;68.30;98725.72;5108219;28;20047;-66
2021/12/07 00:19:17;;;;;;;14.02;11.05;;;;;;;1.41;68.47;98674.19;5108488;28;20047;-66
2021/12/07 00:21:50;;;;;;;18.65;13.20;;;;;;;1.64;68.16;98712.72;5108155;28;20040;-66
2021/12/07 00:24:22;;;;;;;14.70;10.65;;;;;;;-0.52;68.31;98350.25;5108362;28;20040;-66
2021/12/07 00:26:55;;;;;;;15.93;10.50;;;;;;;1.66;67.87;98723.97;5108223;28;20044;-66
2021/12/07 00:29:30;;;;;;;16.00;11.15;;;;;;;1.62;67.68;98725.81;5107983;28;20047;-65
2021/12/07 00:32:17;;;;;;;18.73;12.68;;;;;;;-3.15;67.53;97915.31;5107035;28;20039;-66
2021/12/07 00:35:13;;;;;;;18.35;12.65;;;;;;;1.66;67.71;98721.38;5107904;28;20039;-65
2021/12/07 00:37:48;;;;;;;15.07;10.93;;;;;;;1.24;67.55;98659.00;5108060;28;20040;-66
2021/12/07 00:40:22;;;;;;;15.98;11.32;;;;;;;1.10;67.85;98635.06;5107804;28;20047;-65
2021/12/07 00:42:54;;;;;;;16.10;11.43;;;;;;;1.60;67.49;98711.97;5107701;28;20047;-65
2021/12/07 00:45:31;;;;;;;16.42;11.07;;;;;;;1.57;67.58;98710.25;5107810;28;20040;-66
2021/12/07 00:48:06;;;;;;;16.23;11.98;;;;;;;1.56;67.49;98707.69;5107613;28;20174;-66
2021/12/07 00:50:42;;;;;;;17.50;11.98;;;;;;;1.56;67.58;98700.72;5107557;28;20044;-66
2021/12/07 00:53:15;;;;;;;14.52;10.35;;;;;;;1.58;67.48;98709.34;5107544;28;20039;-66
2021/12/07 00:55:50;;;;;;;16.52;11.43;;;;;;;1.59;67.59;98698.00;5107716;28;20043;-66
2021/12/07 00:58:25;;;;;;;15.63;10.25;;;;;;;1.61;67.44;98702.38;5107624;28;20066;-66
2021/12/07 01:01:01;;;;;;;15.77;11.50;;;;;;;1.56;67.43;98699.84;5107801;28;20040;-66
2021/12/07 01:03:34;;;;;;;18.48;12.23;;;;;;;0.09;67.45;98475.34;5106820;28;20177;-66
2021/12/07 01:06:18;;;;;;;16.20;11.57;;;;;;;1.58;67.50;98698.91;5107512;28;20292;-66
2021/12/07 01:09:12;;;;;;;16.98;11.05;;;;;;;1.56;67.50;98695.47;5107260;28;20040;-66
2021/12/07 01:26:02;;;;;;;17.88;12.48;;;;;;;1.49;67.51;98673.06;5106890;28;20063;-66
2021/12/07 01:28:38;;;;;;;16.27;11.15;;;;;;;1.52;67.44;98667.75;5106888;28;20040;-66
2021/12/07 01:31:17;;;;;;;16.67;11.38;;;;;;;1.49;67.35;98657.38;5106786;28;20040;-66
2021/12/07 01:37:02;;;;;;;17.27;12.70;;;;;;;1.26;67.30;98658.06;5106066;28;20319;-66
2021/12/07 01:45:38;;;;;;;16.55;11.63;;;;;;;1.40;66.89;98683.78;5106545;28;20040;-65
2021/12/07 01:49:44;;;;;;;18.67;11.63;;;;;;;1.43;67.37;98677.59;5106412;28;20036;-66
2021/12/07 01:51:20;;;;;;;16.10;10.90;;;;;;;1.43;66.98;98670.63;5106780;28;20040;-66
2021/12/07 01:59:34;;;;;;;17.00;12.18;;;;;;;1.38;67.47;98669.06;5106268;28;20378;-66
2021/12/07 02:02:10;;;;;;;16.80;12.23;;;;;;;1.38;67.17;98664.69;5106226;28;20296;-66
2021/12/07 02:04:43;;;;;;;18.02;12.90;;;;;;;1.37;67.08;98668.19;5106212;28;20047;-66
2021/12/07 02:07:17;;;;;;;16.63;11.52;;;;;;;1.36;66.89;98681.28;5106033;28;20317;-66
2021/12/07 02:09:53;;;;;;;19.73;14.02;;;;;;;1.40;67.15;98681.16;5106101;28;20040;-67
2021/12/07 02:12:25;;;;;;;17.83;13.20;;;;;;;1.41;67.35;98724.66;5105992;28;20059;-65
2021/12/07 02:14:55;;;;;;;16.83;12.23;;;;;;;1.46;67.08;98665.31;5106250;28;20219;-66
2021/12/07 02:17:26;;;;;;;16.20;10.82;;;;;;;-3.12;66.72;97897.97;5106518;28;20039;-66
2021/12/07 02:19:55;;;;;;;19.65;13.10;;;;;;;1.39;66.83;98660.31;5105933;28;20040;-66
2021/12/07 02:22:27;;;;;;;18.95;12.82;;;;;;;1.39;66.96;98652.47;5106117;28;20101;-66
2021/12/07 02:24:56;;;;;;;18.83;13.43;;;;;;;1.40;67.12;98642.00;5105854;28;20040;-66
2021/12/07 02:27:26;;;;;;;19.83;11.00;;;;;;;1.40;66.95;98634.16;5106123;28;20048;-65
2021/12/07 02:29:56;;;;;;;19.48;13.02;;;;;;;1.45;67.07;98642.72;5106078;28;20047;-66
2021/12/07 02:32:26;;;;;;;17.23;13.48;;;;;;;1.46;67.00;98647.03;5105714;28;20229;-65
2021/12/07 02:34:59;;;;;;;19.35;13.27;;;;;;;1.46;66.84;98644.44;5106026;28;20296;-66
2021/12/07 02:37:30;;;;;;;20.27;13.10;;;;;;;1.47;66.84;98648.75;5105871;28;20227;-66
2021/12/07 02:40:05;;;;;;;20.65;14.13;;;;;;;1.45;66.45;98639.25;5106014;28;20040;-65
2021/12/07 02:42:33;;;;;;;19.10;13.55;;;;;;;1.42;66.95;98634.97;5105769;28;20056;-66
2021/12/07 02:45:05;;;;;;;18.48;12.68;;;;;;;1.42;66.95;98644.56;5105936;28;20044;-66
2021/12/07 02:47:35;;;;;;;18.60;13.95;;;;;;;1.40;66.84;98635.91;5105627;28;20063;-65
2021/12/07 02:50:04;;;;;;;17.35;12.43;;;;;;;1.39;66.88;98640.28;5105759;28;20056;-66
2021/12/07 02:52:35;;;;;;;21.05;13.65;;;;;;;1.42;66.92;98631.50;5105832;28;20039;-66
2021/12/07 02:55:04;;;;;;;21.50;14.00;;;;;;;1.42;67.16;98641.94;5108005;28;20040;-65
2021/12/07 02:57:35;;;;;;;17.88;13.00;;;;;;;1.43;66.63;98641.06;5109810;28;20044;-65
2021/12/07 03:00:10;;;;;;;17.90;13.30;;;;;;;1.40;67.02;98634.16;5109719;28;20040;-65
2021/12/07 03:02:47;;;;;;;18.58;12.32;;;;;;;1.42;67.10;98639.34;5109929;28;20036;-65
2021/12/07 03:05:29;;;;;;;21.13;12.63;;;;;;;1.45;66.97;98641.88;5109885;28;20040;-66
2021/12/07 03:08:23;;;;;;;17.58;12.02;;;;;;;1.45;66.58;98640.09;5109503;28;20055;-66
2021/12/07 03:27:54;;;;;;;16.73;11.82;;;;;;;1.43;66.94;98648.88;5109129;28;20318;-66
2021/12/07 03:30:27;;;;;;;22.23;14.10;;;;;;;1.41;66.39;98645.47;5109166;28;20044;-66
2021/12/07 03:33:02;;;;;;;17.63;12.45;;;;;;;1.38;66.80;98651.63;5109366;28;20048;-65
2021/12/07 03:35:35;;;;;;;18.25;12.68;;;;;;;1.40;66.45;98649.84;5109354;28;20035;-65
2021/12/07 03:38:08;;;;;;;19.00;12.43;;;;;;;1.39;66.61;98642.91;5109013;28;20043;-65
2021/12/07 03:40:42;;;;;;;17.80;12.25;;;;;;;1.38;66.25;98654.25;5109223;28;20040;-66
2021/12/07 03:43:15;;;;;;;17.27;11.13;;;;;;;1.39;66.68;98650.72;5108937;28;20212;-65
2021/12/07 03:45:47;;;;;;;18.55;12.32;;;;;;;1.43;66.85;98647.13;5109089;28;20049;-66
2021/12/07 03:48:20;;;;;;;19.65;13.52;;;;;;;1.44;66.54;98646.22;5108678;28;20308;-66
2021/12/07 03:50:52;;;;;;;19.13;12.93;;;;;;;1.44;66.75;98641.00;5108779;28;20040;-66
2021/12/07 03:53:27;;;;;;;19.80;11.35;;;;;;;1.42;66.67;98641.94;5108998;28;20039;-66
2021/12/07 03:56:03;;;;;;;22.02;13.40;;;;;;;1.36;66.18;98650.81;5108694;28;20036;-66
2021/12/07 03:58:36;;;;;;;17.02;12.75;;;;;;;1.36;66.80;98650.81;5108884;28;20055;-66
2021/12/07 04:01:11;;;;;;;18.75;13.55;;;;;;;1.36;66.27;98656.03;5108805;28;20047;-66
2021/12/07 04:03:45;;;;;;;18.83;13.50;;;;;;;1.32;66.12;98656.19;5108570;28;20036;-66
2021/12/07 04:06:18;;;;;;;19.85;14.05;;;;;;;1.08;66.83;98616.84;5108444;28;20040;-66
2021/12/07 04:08:51;;;;;;;19.75;14.20;;;;;;;1.35;66.69;98663.91;5108602;28;20052;-66
2021/12/07 04:11:25;;;;;;;18.40;12.13;;;;;;;1.16;66.66;98627.06;5108621;28;20047;-66
2021/12/07 04:13:57;;;;;;;18.60;13.30;;;;;;;0.56;66.74;98524.41;5108134;28;20056;-66
2021/12/07 04:16:29;;;;;;;22.10;13.95;;;;;;;1.41;66.22;98669.81;5108542;28;20040;-66
2021/12/07 04:19:02;;;;;;;22.17;13.40;;;;;;;1.41;66.25;98675.03;5107458;28;20044;-66
2021/12/07 04:21:34;;;;;;;21.42;13.93;;;;;;;1.41;66.53;98663.75;5107655;28;20047;-66
2021/12/07 04:24:07;;;;;;;21.00;14.07;;;;;;;1.13;66.53;98716.72;5108306;28;20083;-66
2021/12/07 04:26:42;;;;;;;20.45;13.63;;;;;;;1.36;66.66;98660.41;5108064;28;20051;-66
2021/12/07 04:29:15;;;;;;;20.05;12.88;;;;;;;0.80;66.50;98686.31;5108316;28;20040;-66
2021/12/07 04:31:47;;;;;;;24.13;16.50;;;;;;;1.39;66.50;98675.97;5108350;28;20288;-66
2021/12/07 04:34:19;;;;;;;22.00;15.50;;;;;;;1.06;66.39;98626.47;5107935;28;20208;-66
2021/12/07 04:36:52;;;;;;;20.73;13.15;;;;;;;0.49;66.53;98566.34;5108113;28;20070;-66
2021/12/07 04:39:25;;;;;;;16.35;11.93;;;;;;;1.33;66.74;98673.56;5108081;28;20048;-64
2021/12/07 04:41:59;;;;;;;23.20;15.50;;;;;;;1.28;66.38;98671.06;5107980;28;20036;-65
2021/12/07 04:44:32;;;;;;;22.92;15.80;;;;;;;1.32;66.75;98670.09;5107827;28;20040;-66
2021/12/07 04:47:10;;;;;;;22.88;15.25;;;;;;;1.26;66.32;98671.13;5107947;28;20280;-66
2021/12/07 04:58:20;;;;;;;23.30;15.32;;;;;;;1.27;66.75;98651.09;5078887;28;20044;-66
2021/12/07 05:00:53;;;;;;;22.27;15.18;;;;;;;1.23;66.85;98658.16;5107457;28;20040;-66
2021/12/07 05:03:27;;;;;;;22.20;14.70;;;;;;;-2.16;66.68;98086.72;5107605;28;20047;-66
2021/12/07 05:05:59;;;;;;;22.77;16.33;;;;;;;0.75;66.55;98573.44;5107645;28;20051;-65
2021/12/07 05:08:38;;;;;;;22.13;15.18;;;;;;;1.24;66.77;98666.84;5107503;28;20047;-65
2021/12/07 05:11:46;;;;;;;19.17;14.13;;;;;;;1.23;66.84;98663.38;5107226;28;20040;-66
2021/12/07 05:14:26;;;;;;;24.23;15.30;;;;;;;1.19;67.01;98666.97;5106663;28;20047;-66
2021/12/07 05:17:14;;;;;;;21.48;14.85;;;;;;;1.21;66.76;98666.94;5106606;28;20040;-66
2021/12/07 05:26:00;;;;;;;21.65;14.93;;;;;;;1.24;67.00;98659.00;5107009;28;20040;-66
2021/12/07 05:39:48;;;;;;;25.55;16.13;;;;;;;-0.18;66.55;98435.25;5106653;28;20051;-66
2021/12/07 05:42:21;;;;;;;25.25;13.93;;;;;;;1.22;66.82;98674.72;5106716;28;20287;-66
2021/12/07 05:44:55;;;;;;;21.67;13.68;;;;;;;1.19;67.07;98674.81;5106763;28;20051;-65
2021/12/07 05:47:29;;;;;;;19.90;15.05;;;;;;;1.20;66.58;98686.94;5106559;28;20047;-66
2021/12/07 05:50:02;;;;;;;21.85;13.63;;;;;;;0.42;66.97;98554.34;5106748;28;20062;-66
2021/12/07 05:52:32;;;;;;;23.17;16.50;;;;;;;1.22;66.94;98674.72;5106684;28;20071;-65
2021/12/07 05:55:01;;;;;;;24.60;15.07;;;;;;;1.26;66.85;98673.72;5106853;28;20028;-65
2021/12/07 05:57:32;;;;;;;21.83;15.77;;;;;;;1.24;66.50;98685.13;5106458;28;20212;-65
2021/12/07 06:00:05;;;;;;;23.13;13.77;;;;;;;1.24;66.84;98683.34;5107230;28;20199;-65
2021/12/07 06:02:38;;;;;;;22.92;15.50;;;;;;;1.25;66.78;98692.03;5106150;28;20047;-66
2021/12/07 06:05:08;;;;;;;22.20;14.45;;;;;;;1.30;66.92;98697.13;5106375;28;20040;-65
2021/12/07 06:07:37;;;;;;;24.80;15.30;;;;;;;1.25;66.66;98687.69;5106026;28;20043;-65
2021/12/07 06:10:08;;;;;;;21.00;14.70;;;;;;;1.24;67.00;98678.13;5106389;28;20044;-65
2021/12/07 06:12:37;;;;;;;20.85;14.55;;;;;;;1.19;66.77;98674.81;5106054;28;20056;-65
2021/12/07 06:15:09;;;;;;;24.55;16.33;;;;;;;1.18;66.72;98680.06;5106457;28;20035;-65
2021/12/07 06:17:39;;;;;;;24.45;16.08;;;;;;;1.25;66.99;98684.22;5106057;28;20048;-65
2021/12/07 06:20:09;;;;;;;21.98;16.05;;;;;;;0.87;66.77;98631.34;5106445;28;20028;-65
2021/12/07 06:22:38;;;;;;;22.27;13.77;;;;;;;1.20;67.01;98696.53;5104974;28;20043;-66
2021/12/07 06:25:10;;;;;;;23.00;14.93;;;;;;;0.66;67.06;98582.38;5106019;28;20047;-65
2021/12/07 06:27:39;;;;;;;18.85;12.80;;;;;;;1.20;67.02;98693.94;5104581;28;20051;-66
2021/12/07 06:30:10;;;;;;;21.23;14.60;;;;;;;1.25;66.67;98710.31;5104075;28;20327;-66
2021/12/07 06:32:39;;;;;;;19.95;14.45;;;;;;;1.23;66.65;98780.84;5105921;28;20131;-66
2021/12/07 06:35:09;;;;;;;21.70;14.32;;;;;;;0.74;67.09;98588.22;5104942;28;20036;-67
2021/12/07 06:37:38;;;;;;;28.10;15.63;;;;;;;1.23;66.56;98676.44;5088772;28;20266;-66
2021/12/07 06:40:12;;;;;;;23.40;15.95;;;;;;;1.24;66.83;98678.13;5105586;28;20044;-66
2021/12/07 06:42:44;;;;;;;21.58;14.55;;;;;;;1.26;66.71;98692.00;5105170;28;20036;-66
2021/12/07 06:45:16;;;;;;;21.92;15.00;;;;;;;1.26;66.68;98684.16;5105072;28;20048;-66
2021/12/07 06:47:50;;;;;;;20.88;15.02;;;;;;;1.26;66.45;98671.13;5104710;28;20107;-66
2021/12/07 06:50:23;;;;;;;21.52;14.85;;;;;;;1.21;66.61;98683.44;5105462;28;20044;-66
2021/12/07 06:52:55;;;;;;;23.40;15.90;;;;;;;1.20;66.79;98673.91;5105429;28;20254;-66
2021/12/07 06:55:27;;;;;;;35.13;23.42;;;;;;;0.53;67.03;98578.38;5105492;28;20044;-66
2021/12/07 06:58:00;;;;;;;24.95;16.95;;;;;;;1.25;66.62;98694.66;5105566;28;20040;-67
2021/12/07 07:00:32;;;;;;;23.90;14.25;;;;;;;1.29;66.97;98698.03;5105441;28;20048;-66
2021/12/07 07:03:06;;;;;;;19.20;14.07;;;;;;;1.32;66.62;98698.81;5105382;28;20048;-67
2021/12/07 07:05:38;;;;;;;21.65;13.73;;;;;;;1.32;66.68;98704.03;5105257;28;20289;-67
2021/12/07 07:08:10;;;;;;;16.90;13.07;;;;;;;0.61;66.47;98646.84;5105459;28;20044;-64
2021/12/07 07:10:43;;;;;;;19.63;12.90;;;;;;;1.36;66.61;98689.13;5105342;28;20097;-66
2021/12/07 07:13:15;;;;;;;25.15;17.02;;;;;;;-0.23;66.33;98435.38;5105009;28;20048;-66
2021/12/07 07:15:48;;;;;;;22.40;14.50;;;;;;;1.33;66.57;98690.06;5105170;28;20105;-66
2021/12/07 07:18:21;;;;;;;21.98;14.45;;;;;;;1.36;66.79;98696.97;5105527;28;20296;-66
2021/12/07 07:20:55;;;;;;;21.20;14.05;;;;;;;1.36;66.77;98697.81;5105309;28;20280;-64
2021/12/07 07:23:27;;;;;;;24.80;15.87;;;;;;;1.38;66.65;98697.78;5105116;28;20089;-66
2021/12/07 07:26:00;;;;;;;26.77;15.90;;;;;;;1.36;66.56;98710.00;5104921;28;20382;-66
2021/12/07 07:28:34;;;;;;;27.83;15.88;;;;;;;1.35;66.71;98713.53;5104574;28;20085;-66
2021/12/07 07:31:08;;;;;;;27.27;15.93;;;;;;;1.36;66.58;98717.84;5104995;28;20289;-66
2021/12/07 07:33:42;;;;;;;24.10;17.13;;;;;;;1.37;66.63;98709.97;5104165;28;20040;-65
2021/12/07 07:36:14;;;;;;;25.05;15.43;;;;;;;1.33;66.77;98720.53;5104848;28;20044;-65
2021/12/07 07:38:46;;;;;;;24.42;15.80;;;;;;;1.38;66.74;98727.34;5104675;28;20040;-65
2021/12/07 07:41:18;;;;;;;27.98;16.60;;;;;;;1.36;66.63;98726.53;5107875;28;20044;-66
2021/12/07 07:43:51;;;;;;;24.75;15.75;;;;;;;1.33;66.67;98731.00;5108683;28;20101;-66
2021/12/07 07:46:23;;;;;;;21.85;14.98;;;;;;;1.34;66.75;98733.56;5108632;28;20048;-66
2021/12/07 07:48:56;;;;;;;24.70;16.52;;;;;;;1.33;66.38;98733.59;5108502;28;20300;-66
2021/12/07 07:51:28;;;;;;;25.48;17.17;;;;;;;1.31;66.62;98735.41;5108835;28;20081;-66
2021/12/07 07:54:01;;;;;;;25.13;15.88;;;;;;;1.30;66.66;98723.25;5108383;28;20036;-65
2021/12/07 07:56:34;;;;;;;22.20;15.38;;;;;;;1.29;66.78;98729.34;5108272;28;20036;-66
2021/12/07 07:59:06;;;;;;;21.67;15.40;;;;;;;1.31;66.75;98725.81;5109391;28;20169;-66
2021/12/07 08:01:38;;;;;;;23.30;14.77;;;;;;;1.34;66.71;98725.72;5108606;28;20155;-66
2021/12/07 08:04:12;;;;;;;24.25;16.08;;;;;;;1.46;66.53;98725.38;5108291;28;20093;-66
2021/12/07 08:06:45;;;;;;;23.57;16.27;;;;;;;1.61;66.48;98718.03;5108295;28;20040;-66
2021/12/07 08:09:17;;;;;;;25.38;17.45;;;;;;;1.73;66.13;98712.44;5108356;28;20040;-66
2021/12/07 08:11:49;;;;;;;26.33;18.35;;;;;;;1.83;65.61;98709.50;5108210;28;20040;-66
2021/12/07 08:14:21;;;;;;;29.65;18.55;;;;;;;1.96;65.00;98699.53;5108155;28;20044;-66
2021/12/07 08:16:54;;;;;;;23.48;16.38;;;;;;;2.08;65.15;98706.16;5107941;28;20044;-66
2021/12/07 08:19:27;;;;;;;25.17;16.65;;;;;;;2.23;64.82;98703.91;5108258;28;20044;-65
2021/12/07 08:21:59;;;;;;;25.60;17.75;;;;;;;2.36;64.63;98712.22;5108206;28;20085;-66
2021/12/07 08:24:31;;;;;;;26.13;17.63;;;;;;;2.47;64.17;98709.25;5107909;28;20040;-65
2021/12/07 08:27:04;;;;;;;23.05;16.42;;;;;;;2.48;64.17;98718.81;5107866;28;20044;-65
2021/12/07 08:29:36;;;;;;;23.80;15.52;;;;;;;2.47;64.38;98719.72;5107764;28;20048;-66
2021/12/07 08:32:09;;;;;;;24.63;15.95;;;;;;;2.22;64.02;98678.66;5107772;28;20040;-65
2021/12/07 08:34:43;;;;;;;24.90;17.58;;;;;;;2.60;63.83;98717.53;5107720;28;20085;-66
2021/12/07 08:37:15;;;;;;;18.15;12.65;;;;;;;2.66;63.79;98719.97;5107639;28;20048;-66
2021/12/07 08:39:47;;;;;;;21.73;15.73;;;;;;;2.73;63.84;98729.31;5107702;28;20044;-67
2021/12/07 08:42:20;;;;;;;20.25;13.55;;;;;;;2.74;63.55;98729.25;5107111;28;20040;-66
2021/12/07 08:44:52;;;;;;;23.63;14.02;;;;;;;2.78;63.62;98733.50;5107805;28;20067;-66
2021/12/07 08:47:24;;;;;;;22.98;14.65;;;;;;;2.80;63.44;98730.81;5107516;28;20316;-66
2021/12/07 08:49:58;;;;;;;19.45;13.63;;;;;;;2.78;63.51;98727.41;5107287;28;20218;-65
2021/12/07 08:52:30;;;;;;;22.08;13.70;;;;;;;2.80;63.24;98734.28;5106708;28;20230;-66
2021/12/07 09:00:43;;;;;;;30.48;15.68;;;;;;;-1.97;62.72;97932.16;5107125;28;20239;-66
2021/12/07 09:03:15;;;;;;;20.15;13.95;;;;;;;2.78;62.63;98732.63;5107050;28;20054;-66
2021/12/07 09:05:49;;;;;;;19.65;14.27;;;;;;;1.05;62.29;98444.69;5107053;28;20040;-66
2021/12/07 09:08:21;;;;;;;23.10;15.02;;;;;;;2.86;63.10;98739.31;5107121;28;20040;-66
2021/12/07 09:10:53;;;;;;;22.38;14.70;;;;;;;2.58;62.90;98686.22;5107263;28;20039;-66
2021/12/07 09:13:27;;;;;;;21.05;14.52;;;;;;;2.88;62.83;98734.88;5106833;28;20047;-66
2021/12/07 09:15:59;;;;;;;18.13;14.40;;;;;;;2.93;62.70;98734.72;5106988;28;20040;-66
2021/12/07 09:18:32;;;;;;;21.00;14.93;;;;;;;3.14;62.77;98726.13;5106879;28;20097;-66
2021/12/07 09:21:07;;;;;;;19.63;13.30;;;;;;;3.43;62.16;98732.94;5106854;28;20052;-66
2021/12/07 09:23:39;;;;;;;24.35;15.23;;;;;;;1.77;61.56;98418.84;5107210;28;20062;-66
2021/12/07 09:26:12;;;;;;;18.63;13.55;;;;;;;3.72;61.11;98710.91;5106074;28;20305;-66
2021/12/07 09:28:45;;;;;;;22.25;15.52;;;;;;;3.76;60.64;98715.13;5106922;28;20039;-67
2021/12/07 09:31:18;;;;;;;20.60;12.77;;;;;;;3.28;60.50;98636.59;5106824;28;20089;-67
2021/12/07 09:33:51;;;;;;;20.13;13.95;;;;;;;3.83;60.42;98710.50;5106463;28;20077;-66
2021/12/07 09:36:25;;;;;;;20.48;13.88;;;;;;;4.01;59.59;98727.31;5106530;28;20090;-66
2021/12/07 09:38:58;;;;;;;19.08;13.77;;;;;;;4.31;60.17;98704.28;5106380;28;20093;-67
2021/12/07 09:41:30;;;;;;;25.48;14.40;;;;;;;4.58;59.26;98705.78;5106562;28;20093;-67
2021/12/07 09:44:04;;;;;;;21.45;14.63;;;;;;;4.85;58.30;98709.03;5106609;28;20040;-67
2021/12/07 09:46:38;;;;;;;19.95;13.57;;;;;;;4.88;57.86;98711.53;5106089;28;20093;-67
2021/12/07 09:49:11;;;;;;;20.15;13.32;;;;;;;5.11;57.22;98713.22;5106154;28;20039;-67
2021/12/07 09:51:45;;;;;;;20.70;13.98;;;;;;;5.29;57.35;98704.53;5105990;28;20043;-67
2021/12/07 09:54:18;;;;;;;21.87;14.10;;;;;;;5.34;56.88;98701.69;5106173;28;20086;-67
2021/12/07 09:56:50;;;;;;;19.08;12.93;;;;;;;5.57;56.56;98695.41;5106191;28;20086;-65
2021/12/07 09:59:22;;;;;;;24.33;14.40;;;;;;;5.83;56.61;98688.97;5106064;28;20040;-66
2021/12/07 10:01:55;;;;;;;18.80;11.95;;;;;;;5.95;56.83;98691.03;5106045;28;20248;-66
2021/12/07 10:04:28;;;;;;;20.80;12.80;;;;;;;6.17;56.75;98696.13;5105791;28;20044;-66
2021/12/07 10:07:02;;;;;;;19.00;12.93;;;;;;;5.86;54.96;98589.75;5105961;28;20040;-66
2021/12/07 10:09:34;;;;;;;19.47;13.37;;;;;;;6.49;55.62;98686.66;5105828;28;20044;-66
2021/12/07 10:12:07;;;;;;;19.25;12.85;;;;;;;6.51;54.47;98688.28;5105361;28;20457;-66
2021/12/07 10:14:41;;;;;;;22.27;14.93;;;;;;;6.28;54.13;98686.78;5105854;28;20040;-65
2021/12/07 10:17:14;;;;;;;18.60;12.93;;;;;;;6.14;55.46;98699.75;5106106;28;20043;-65
2021/12/07 10:19:48;;;;;;;24.02;14.60;;;;;;;5.93;55.32;98711.28;5105983;28;20039;-66
2021/12/07 10:22:21;;;;;;;17.13;12.82;;;;;;;5.80;55.81;98716.25;5106047;28;20040;-66
2021/12/07 10:24:55;;;;;;;19.55;13.35;;;;;;;4.43;56.94;98509.63;5105716;28;20085;-65
2021/12/07 10:27:35;;;;;;;18.52;12.20;;;;;;;5.53;55.70;98709.63;5105688;28;20039;-66
2021/12/07 10:30:06;;;;;;;27.17;14.10;;;;;;;5.51;57.21;98709.69;5105544;28;20123;-66
2021/12/07 10:32:39;;;;;;;18.40;12.80;;;;;;;4.79;57.13;98646.28;5105808;28;20346;-66
2021/12/07 10:35:30;;;;;;;20.10;13.27;;;;;;;5.30;55.58;98711.50;5105180;28;20097;-67
2021/12/07 10:38:13;;;;;;;18.75;14.50;;;;;;;5.22;55.93;98705.72;5105783;28;20085;-67
2021/12/07 10:40:59;;;;;;;25.90;13.82;;;;;;;5.13;56.16;98703.50;5105724;28;20043;-67
2021/12/07 10:43:42;;;;;;;19.10;13.38;;;;;;;5.10;56.30;98708.88;5105693;28;20044;-67
2021/12/07 10:46:36;;;;;;;18.20;13.35;;;;;;;4.98;56.27;98698.91;5105835;28;20185;-67
2021/12/07 10:49:29;;;;;;;16.15;11.80;;;;;;;4.91;58.09;98703.56;5105833;28;20338;-67
2021/12/07 10:52:14;;;;;;;16.63;11.77;;;;;;;4.88;58.56;98702.81;5105641;28;20077;-68
2021/12/07 10:54:49;;;;;;;;;;;;;;;4.73;56.36;98702.53;5105768;28;20296;-67
2021/12/07 10:57:25;;;;;;;19.30;13.85;;;;;;;4.68;58.84;98703.66;5104664;28;19961;-67
2021/12/07 11:00:17;;;;;;;19.30;12.70;;;;;;;4.65;57.01;98703.78;5105209;28;20062;-67
2021/12/07 11:02:53;;;;;;;15.13;11.23;;;;;;;4.60;58.81;98705.72;5105222;28;20085;-69
2021/12/07 11:05:29;;;;;;;19.42;12.90;;;;;;;4.53;58.80;98713.00;5104922;28;20211;-66
2021/12/07 11:08:03;;;;;;;18.67;12.45;;;;;;;4.57;59.49;98706.72;5104959;28;20062;-66
2021/12/07 11:10:39;;;;;;;19.30;12.80;;;;;;;4.49;58.40;98707.03;5105051;28;20090;-67
2021/12/07 11:13:15;;;;;;;21.20;14.25;;;;;;;4.00;59.26;98665.28;5104799;28;20282;-67
2021/12/07 11:15:52;;;;;;;21.88;14.30;;;;;;;4.48;59.43;98704.47;5107261;28;20203;-66
2021/12/07 11:18:27;;;;;;;24.02;15.18;;;;;;;4.40;59.38;98710.03;5108868;28;20207;-66
2021/12/07 11:21:03;;;;;;;19.58;14.55;;;;;;;4.37;58.68;98709.28;5109076;28;20044;-67
2021/12/07 11:23:38;;;;;;;19.90;14.63;;;;;;;4.39;59.79;98708.31;5109167;28;20239;-67
2021/12/07 11:31:56;;;;;;;17.48;12.98;;;;;;;4.24;60.15;98702.84;5108678;28;20246;-66
2021/12/07 11:34:29;;;;;;;;;;;;;;;4.16;58.37;98711.81;5109472;28;20238;-66
2021/12/07 11:37:05;;;;;;;18.83;13.93;;;;;;;4.17;59.67;98703.03;5107987;28;19916;-66
2021/12/07 11:39:42;;;;;;;16.40;13.10;;;;;;;4.24;60.00;98705.44;5108802;28;20044;-66
2021/12/07 11:42:18;;;;;;;19.65;14.57;;;;;;;4.23;59.77;98690.63;5107415;28;20105;-66
2021/12/07 11:44:53;;;;;;;21.40;13.73;;;;;;;4.18;59.72;98699.50;5108534;28;20097;-66
2021/12/07 11:47:30;;;;;;;21.58;14.52;;;;;;;3.13;60.06;98548.16;5108320;28;20166;-66
2021/12/07 11:50:12;;;;;;;17.83;13.38;;;;;;;4.13;58.97;98688.34;5108258;28;20296;-66
2021/12/07 11:52:45;;;;;;;19.08;14.35;;;;;;;4.14;60.02;98695.28;5108499;28;20044;-66
2021/12/07 11:55:18;;;;;;;17.15;12.55;;;;;;;4.25;59.76;98709.78;5108386;28;20113;-67
2021/12/07 11:57:53;;;;;;;19.23;13.50;;;;;;;4.32;59.50;98696.38;5108294;28;20082;-66
2021/12/07 12:00:28;;;;;;;17.95;12.57;;;;;;;4.28;59.57;98701.78;5108243;28;20296;-67
2021/12/07 12:03:00;;;;;;;19.13;13.05;;;;;;;4.27;59.39;98913.41;5108309;28;20052;-67
2021/12/07 12:05:33;;;;;;;17.98;12.65;;;;;;;4.18;59.23;98691.63;5108198;28;20085;-67
2021/12/07 12:08:09;;;;;;;16.88;11.77;;;;;;;4.16;59.42;98693.47;5108240;28;20326;-66
2021/12/07 12:10:45;;;;;;;20.05;12.70;;;;;;;4.14;59.71;98702.31;5107880;28;20043;-67
2021/12/07 12:13:32;;;;;;;17.90;12.10;;;;;;;4.07;59.53;98699.06;5107940;28;20101;-67
2021/12/07 12:16:13;;;;;;;17.02;13.30;;;;;;;4.03;60.00;98699.25;5108116;28;20082;-67
2021/12/07 12:18:58;;;;;;;16.00;11.50;;;;;;;4.00;60.52;98697.59;5108106;28;20300;-67
2021/12/07 12:21:35;;;;;;;17.48;12.48;;;;;;;4.08;60.83;98695.53;5107863;28;20048;-67
2021/12/07 12:24:14;;;;;;;15.65;13.00;;;;;;;4.06;60.97;98689.50;5107516;28;20315;-66
2021/12/07 12:26:47;;;;;;;18.55;12.95;;;;;;;4.05;61.23;98698.28;5106089;28;20044;-65
2021/12/07 12:29:24;;;;;;;21.13;14.07;;;;;;;4.04;61.43;98698.34;5107801;28;20223;-65
2021/12/07 12:31:59;;;;;;;19.23;13.73;;;;;;;4.04;61.68;98688.72;5107453;28;20043;-65
2021/12/07 12:34:34;;;;;;;17.52;14.65;;;;;;;4.02;61.86;98687.91;5107875;28;20103;-65
2021/12/07 12:37:09;;;;;;;17.27;13.38;;;;;;;4.00;61.92;98689.75;5107695;28;20044;-65
2021/12/07 12:39:45;;;;;;;19.02;14.23;;;;;;;4.00;61.82;98676.63;5107616;28;20040;-65
2021/12/07 12:42:30;;;;;;;20.73;13.90;;;;;;;3.99;62.25;98674.06;5107493;28;20051;-64
2021/12/07 12:45:10;;;;;;;;;;;;;;;3.98;62.11;98677.59;5108103;28;20258;-66
2021/12/07 12:47:40;;;;;;;18.27;12.52;;;;;;;3.91;62.61;98671.75;5107483;28;19930;-65
2021/12/07 12:50:17;;;;;;;17.52;13.18;;;;;;;3.90;62.87;98677.06;5107216;28;20056;-65
2021/12/07 12:52:53;;;;;;;19.77;15.23;;;;;;;3.84;62.94;98679.00;5106626;28;20329;-65
2021/12/07 12:55:41;;;;;;;22.15;14.82;;;;;;;3.76;62.96;98683.69;5106442;28;20040;-65
2021/12/07 12:58:20;;;;;;;20.33;15.57;;;;;;;3.73;63.34;98672.47;5107319;28;20047;-65
2021/12/07 13:01:11;;;;;;;18.42;12.85;;;;;;;3.77;63.57;98674.03;5106885;28;20036;-66
2021/12/07 13:04:05;;;;;;;20.48;14.40;;;;;;;3.82;63.55;98672.97;5107124;28;20040;-66
2021/12/07 13:06:52;;;;;;;20.63;13.02;;;;;;;3.80;63.04;98663.44;5101272;28;20106;-67
2021/12/07 13:09:40;;;;;;;18.30;13.32;;;;;;;3.78;63.46;98670.50;5106910;28;20039;-66
2021/12/07 13:12:17;;;;;;;17.40;12.73;;;;;;;3.79;63.61;98677.47;5106721;28;20105;-66
2021/12/07 13:15:09;;;;;;;16.92;11.82;;;;;;;-0.94;63.48;97872.78;5107162;28;20036;-66
2021/12/07 13:17:42;;;;;;;17.63;12.05;;;;;;;3.79;63.67;98673.06;5106996;28;20050;-67
2021/12/07 13:20:34;;;;;;;16.20;12.93;;;;;;;3.79;63.79;98670.44;5106729;28;20093;-67
2021/12/07 13:23:09;;;;;;;17.65;12.77;;;;;;;3.69;63.75;98673.50;5106009;28;20051;-67
2021/12/07 13:25:44;;;;;;;13.82;10.82;;;;;;;3.63;63.99;98669.34;5106517;28;20234;-65